createdAt,value
2019-02-23T00:00:43.790Z,82.40
2019-02-23T00:03:16.295Z,82.30
2019-02-23T00:05:45.965Z,82.08
2019-02-23T00:08:16.074Z,82.03
2019-02-23T00:10:45.737Z,82.08
2019-02-23T00:13:15.494Z,82.01
2019-02-23T00:15:45.329Z,82.07
2019-02-23T00:18:15.455Z,82.17
2019-02-23T00:20:45.314Z,82.36
2019-02-23T00:23:15.130Z,82.37
2019-02-23T00:25:44.832Z,82.39
2019-02-23T00:28:14.838Z,82.33
2019-02-23T00:30:44.534Z,82.25
2019-02-23T00:33:14.599Z,82.41
2019-02-23T00:35:44.265Z,82.55
2019-02-23T00:38:14.493Z,82.83
2019-02-23T00:40:44.172Z,82.73
2019-02-23T00:43:13.897Z,82.62
2019-02-23T00:45:43.579Z,82.64
2019-02-23T00:48:13.498Z,82.81
2019-02-23T00:50:44.362Z,82.85
2019-02-23T00:53:14.913Z,82.95
2019-02-23T00:55:44.610Z,82.98
2019-02-23T00:58:14.612Z,82.98
2019-02-23T01:00:44.298Z,83.00
2019-02-23T01:03:14.962Z,82.92
2019-02-23T01:05:44.656Z,83.03
2019-02-23T01:08:14.606Z,83.11
2019-02-23T01:10:44.353Z,83.18
2019-02-23T01:13:14.425Z,83.22
2019-02-23T01:15:44.136Z,83.22
2019-02-23T01:18:13.904Z,83.21
2019-02-23T01:20:43.947Z,83.29
2019-02-23T01:23:14.030Z,83.41
2019-02-23T01:25:43.807Z,83.49
2019-02-23T01:28:13.582Z,83.61
2019-02-23T01:30:43.280Z,83.64
2019-02-23T01:33:13.199Z,83.75
2019-02-23T01:35:43.195Z,83.76
2019-02-23T01:38:14.579Z,83.86
2019-02-23T01:40:44.485Z,83.97
2019-02-23T01:43:14.197Z,84.13
2019-02-23T01:45:44.070Z,84.46
2019-02-23T01:48:13.943Z,84.39
2019-02-23T01:50:43.704Z,84.24
2019-02-23T01:53:13.721Z,84.15
2019-02-23T01:55:43.544Z,84.13
2019-02-23T01:58:13.225Z,84.07
2019-02-23T02:00:43.553Z,83.86
2019-02-23T02:03:13.305Z,83.73
2019-02-23T02:05:43.061Z,83.55
2019-02-23T02:08:13.930Z,83.43
2019-02-23T02:10:43.796Z,83.31
2019-02-23T02:13:13.621Z,83.33
2019-02-23T02:15:43.466Z,83.27
2019-02-23T02:18:13.146Z,83.21
2019-02-23T02:20:42.996Z,83.19
2019-02-23T02:23:12.741Z,82.97
2019-02-23T02:25:42.433Z,82.83
2019-02-23T02:28:12.126Z,82.73
2019-02-23T02:30:41.884Z,82.64
2019-02-23T02:33:11.570Z,82.53
2019-02-23T02:35:41.261Z,82.50
2019-02-23T02:38:11.770Z,82.61
2019-02-23T02:40:41.542Z,82.54
2019-02-23T02:43:11.299Z,82.52
2019-02-23T02:45:41.230Z,82.51
2019-02-23T02:48:10.910Z,82.46
2019-02-23T02:50:40.734Z,82.51
2019-02-23T02:53:10.400Z,82.56
2019-02-23T02:55:40.241Z,82.66
2019-02-23T02:58:09.936Z,82.69
2019-02-23T03:00:40.060Z,82.67
2019-02-23T03:03:09.836Z,82.61
2019-02-23T03:05:39.515Z,82.61
2019-02-23T03:08:09.188Z,82.56
2019-02-23T03:10:39.931Z,82.28
2019-02-23T03:13:10.073Z,82.21
2019-02-23T03:15:39.987Z,82.39
2019-02-23T03:18:09.672Z,82.44
2019-02-23T03:20:39.357Z,82.43
2019-02-23T03:23:09.054Z,82.29
2019-02-23T03:25:38.737Z,82.18
2019-02-23T03:28:08.911Z,82.08
2019-02-23T03:30:38.602Z,81.99
2019-02-23T03:33:08.540Z,81.92
2019-02-23T03:35:38.547Z,81.98
2019-02-23T03:38:08.214Z,81.95
2019-02-23T03:40:37.949Z,81.97
2019-02-23T03:43:07.708Z,81.96
2019-02-23T03:45:37.574Z,82.09
2019-02-23T03:48:07.268Z,82.25
2019-02-23T03:50:48.369Z,82.49
2019-02-23T03:53:08.625Z,82.76
2019-02-23T03:55:38.733Z,83.00
2019-02-23T03:58:08.499Z,83.13
2019-02-23T04:00:38.181Z,83.22
2019-02-23T04:03:07.873Z,83.27
2019-02-23T04:05:37.549Z,83.27
2019-02-23T04:08:07.231Z,83.15
2019-02-23T04:10:37.062Z,83.04
2019-02-23T04:13:08.014Z,82.92
2019-02-23T04:15:37.696Z,82.81
2019-02-23T04:18:07.385Z,82.73
2019-02-23T04:20:37.058Z,82.66
2019-02-23T04:23:06.813Z,82.51
2019-02-23T04:25:36.833Z,82.29
2019-02-23T04:28:06.492Z,82.18
2019-02-23T04:30:36.234Z,82.12
2019-02-23T04:33:06.093Z,82.00
2019-02-23T04:35:35.784Z,81.98
2019-02-23T04:38:05.669Z,81.77
2019-02-23T04:40:35.433Z,81.79
2019-02-23T04:43:06.272Z,81.79
2019-02-23T04:45:35.951Z,81.95
2019-02-23T04:48:05.664Z,82.17
2019-02-23T04:50:35.317Z,82.37
2019-02-23T04:53:05.284Z,82.38
2019-02-23T04:55:34.954Z,82.42
2019-02-23T04:58:05.217Z,82.49
2019-02-23T05:00:34.910Z,82.51
2019-02-23T05:03:05.011Z,82.50
2019-02-23T05:05:35.207Z,82.44
2019-02-23T05:08:05.234Z,82.49
2019-02-23T05:10:34.918Z,82.49
2019-02-23T05:13:05.003Z,82.51
2019-02-23T05:15:34.691Z,82.72
2019-02-23T05:18:05.447Z,82.78
2019-02-23T05:20:35.129Z,82.98
2019-02-23T05:23:05.146Z,83.06
2019-02-23T05:25:34.970Z,83.05
2019-02-23T05:28:05.178Z,83.15
2019-02-23T05:30:34.897Z,83.09
2019-02-23T05:33:06.474Z,83.05
2019-02-23T05:35:36.592Z,82.88
2019-02-23T05:38:06.768Z,82.79
2019-02-23T05:40:36.466Z,82.72
2019-02-23T05:43:06.365Z,82.83
2019-02-23T05:45:36.506Z,82.93
2019-02-23T05:48:06.519Z,83.00
2019-02-23T05:50:36.302Z,83.16
2019-02-23T05:53:05.976Z,83.38
2019-02-23T05:55:35.676Z,83.58
2019-02-23T05:58:05.401Z,83.62
2019-02-23T06:00:35.139Z,83.64
2019-02-23T06:03:05.603Z,83.68
2019-02-23T06:05:35.272Z,83.68
2019-02-23T06:08:05.199Z,83.80
2019-02-23T06:10:34.886Z,83.82
2019-02-23T06:13:05.280Z,83.91
2019-02-23T06:15:35.032Z,83.96
2019-02-23T06:18:05.089Z,84.01
2019-02-23T06:20:34.771Z,84.11
2019-02-23T06:23:04.923Z,84.16
2019-02-23T06:25:34.610Z,84.36
2019-02-23T06:28:05.220Z,84.39
2019-02-23T06:30:34.990Z,84.50
2019-02-23T06:33:05.350Z,84.43
2019-02-23T06:35:35.048Z,84.41
2019-02-23T06:38:06.263Z,84.43
2019-02-23T06:40:36.177Z,84.40
2019-02-23T06:43:05.933Z,84.34
2019-02-23T06:45:35.619Z,84.47
2019-02-23T06:48:06.338Z,84.26
2019-02-23T06:50:36.131Z,84.10
2019-02-23T06:53:06.478Z,84.03
2019-02-23T06:55:36.402Z,84.07
2019-02-23T06:58:06.083Z,84.14
2019-02-23T07:00:35.821Z,84.28
2019-02-23T07:03:05.503Z,84.20
2019-02-23T07:05:35.194Z,84.23
2019-02-23T07:08:05.306Z,84.18
2019-02-23T07:10:34.989Z,84.19
2019-02-23T07:13:05.195Z,84.15
2019-02-23T07:15:34.899Z,84.30
2019-02-23T07:18:05.209Z,84.24
2019-02-23T07:20:43.803Z,84.12
2019-02-23T07:23:06.594Z,84.00
2019-02-23T07:25:36.569Z,83.77
2019-02-23T07:28:06.247Z,83.54
2019-02-23T07:30:36.209Z,83.40
2019-02-23T07:33:06.085Z,83.27
2019-02-23T07:35:35.773Z,83.04
2019-02-23T07:38:05.453Z,83.08
2019-02-23T07:40:35.421Z,83.20
2019-02-23T07:43:05.891Z,83.27
2019-02-23T07:45:35.986Z,83.27
2019-02-23T07:48:06.417Z,83.27
2019-02-23T07:50:36.105Z,83.14
2019-02-23T07:53:05.828Z,83.39
2019-02-23T07:55:35.752Z,83.49
2019-02-23T07:58:07.003Z,83.60
2019-02-23T08:00:36.676Z,83.84
2019-02-23T08:03:06.361Z,83.91
2019-02-23T08:05:36.051Z,83.99
2019-02-23T08:08:05.731Z,83.95
2019-02-23T08:10:36.597Z,83.86
2019-02-23T08:13:06.557Z,84.01
2019-02-23T08:15:36.258Z,83.82
2019-02-23T08:18:06.226Z,83.75
2019-02-23T08:20:36.078Z,83.65
2019-02-23T08:23:05.961Z,83.43
2019-02-23T08:25:35.654Z,83.15
2019-02-23T08:28:05.772Z,83.29
2019-02-23T08:30:35.462Z,83.37
2019-02-23T08:33:05.152Z,83.20
2019-02-23T08:35:34.837Z,83.10
2019-02-23T08:38:05.233Z,82.76
2019-02-23T08:40:35.375Z,82.52
2019-02-23T08:43:05.049Z,82.32
2019-02-23T08:45:35.499Z,81.98
2019-02-23T08:48:05.201Z,82.07
2019-02-23T08:50:34.887Z,81.80
2019-02-23T08:53:05.024Z,81.81
2019-02-23T08:55:34.724Z,81.81
2019-02-23T08:58:05.365Z,81.39
2019-02-23T09:00:35.297Z,81.01
2019-02-23T09:03:05.508Z,80.95
2019-02-23T09:05:35.308Z,81.13
2019-02-23T09:08:05.192Z,80.37
2019-02-23T09:10:34.874Z,80.21
2019-02-23T09:13:06.136Z,80.42
2019-02-23T09:15:35.810Z,80.53
2019-02-23T09:18:05.622Z,79.99
2019-02-23T09:20:35.838Z,80.05
2019-02-23T09:23:05.533Z,79.49
2019-02-23T09:25:35.587Z,79.39
2019-02-23T09:28:06.297Z,78.83
2019-02-23T09:30:35.976Z,78.32
2019-02-23T09:33:06.026Z,77.36
2019-02-23T09:35:35.722Z,78.00
2019-02-23T09:38:05.517Z,77.48
2019-02-23T09:40:35.298Z,77.52
2019-02-23T09:43:04.985Z,77.33
2019-02-23T09:45:34.681Z,77.27
2019-02-23T09:48:05.310Z,77.21
2019-02-23T09:50:34.980Z,77.41
2019-02-23T09:53:11.261Z,77.05
2019-02-23T09:55:36.510Z,76.62
2019-02-23T09:58:06.389Z,76.59
2019-02-23T10:00:36.076Z,76.34
2019-02-23T10:03:05.929Z,76.21
2019-02-23T10:05:38.133Z,76.08
2019-02-23T10:08:07.007Z,76.21
2019-02-23T10:10:36.685Z,75.21
2019-02-23T10:13:06.707Z,75.24
2019-02-23T10:15:36.507Z,75.17
2019-02-23T10:18:06.202Z,75.33
2019-02-23T10:20:36.188Z,75.15
2019-02-23T10:23:05.896Z,74.68
2019-02-23T10:25:35.575Z,75.17
2019-02-23T10:28:05.346Z,75.23
2019-02-23T10:30:35.020Z,75.04
2019-02-23T10:33:05.286Z,74.65
2019-02-23T10:35:35.209Z,73.90
2019-02-23T10:38:05.279Z,73.74
2019-02-23T10:40:34.987Z,73.78
2019-02-23T10:43:05.040Z,73.35
2019-02-23T10:45:34.717Z,73.49
2019-02-23T10:48:05.231Z,73.26
2019-02-23T10:50:35.002Z,72.55
2019-02-23T10:53:05.357Z,72.66
2019-02-23T10:55:35.049Z,72.63
2019-02-23T10:58:06.150Z,72.35
2019-02-23T11:00:35.998Z,70.92
2019-02-23T11:03:05.777Z,71.04
2019-02-23T11:05:35.513Z,70.73
2019-02-23T11:08:05.563Z,71.37
2019-02-23T11:10:35.588Z,69.88
2019-02-23T11:13:05.408Z,69.93
2019-02-23T11:15:35.190Z,69.33
2019-02-23T11:18:05.056Z,69.64
2019-02-23T11:20:35.298Z,69.12
2019-02-23T11:23:05.247Z,69.08
2019-02-23T11:25:35.187Z,67.93
2019-02-23T11:28:05.372Z,67.84
2019-02-23T11:30:35.205Z,66.12
2019-02-23T11:33:05.242Z,64.92
2019-02-23T11:35:35.183Z,65.55
2019-02-23T11:38:05.519Z,64.47
2019-02-23T11:40:35.484Z,64.23
2019-02-23T11:43:05.233Z,64.15
2019-02-23T11:45:35.321Z,64.30
2019-02-23T11:48:05.306Z,64.95
2019-02-23T11:50:35.070Z,63.40
2019-02-23T11:53:05.814Z,62.94
2019-02-23T11:55:35.501Z,61.50
2019-02-23T11:58:05.326Z,61.51
2019-02-23T12:00:35.019Z,60.79
2019-02-23T12:03:04.973Z,62.12
2019-02-23T12:05:34.651Z,61.13
2019-02-23T12:08:05.225Z,60.69
2019-02-23T12:10:34.916Z,60.70
2019-02-23T12:13:04.956Z,60.92
2019-02-23T12:15:34.643Z,59.47
2019-02-23T12:18:04.929Z,58.98
2019-02-23T12:20:34.613Z,59.52
2019-02-23T12:23:05.210Z,57.68
2019-02-23T12:25:34.903Z,58.52
2019-02-23T12:28:05.289Z,59.27
2019-02-23T12:30:35.201Z,57.45
2019-02-23T12:33:04.965Z,56.04
2019-02-23T12:35:34.655Z,55.88
2019-02-23T12:38:05.175Z,55.75
2019-02-23T12:40:34.885Z,54.54
2019-02-23T12:43:05.242Z,54.41
2019-02-23T12:45:34.910Z,53.89
2019-02-23T12:48:05.381Z,53.78
2019-02-23T12:50:35.070Z,54.19
2019-02-23T12:53:05.098Z,54.72
2019-02-23T12:55:34.940Z,54.66
2019-02-23T12:58:05.339Z,54.70
2019-02-23T13:00:35.016Z,54.59
2019-02-23T13:03:05.098Z,53.75
2019-02-23T13:05:35.007Z,53.39
2019-02-23T13:08:05.114Z,53.48
2019-02-23T13:10:34.778Z,52.79
2019-02-23T13:13:58.993Z,51.10
2019-02-23T13:17:06.290Z,51.57
2019-02-23T13:20:20.234Z,50.47
2019-02-23T13:23:29.965Z,49.75
2019-02-23T13:26:41.557Z,50.11
2019-02-23T13:29:28.645Z,50.57
2019-02-23T13:32:21.425Z,50.48
2019-02-23T13:35:06.719Z,49.96
2019-02-23T13:40:55.793Z,49.94
2019-02-23T13:44:01.411Z,49.34
2019-02-23T13:47:00.181Z,49.60
2019-02-23T13:50:13.033Z,49.08
2019-02-23T13:53:40.177Z,48.45
2019-02-23T13:56:38.361Z,48.09
2019-02-23T13:59:45.251Z,48.08
2019-02-23T14:02:32.528Z,48.04
2019-02-23T14:05:35.495Z,48.15
2019-02-23T14:08:50.693Z,48.38
2019-02-23T14:12:00.677Z,47.78
2019-02-23T14:15:02.230Z,48.15
2019-02-23T14:18:04.615Z,47.61
2019-02-23T14:21:18.384Z,47.04
2019-02-23T14:24:12.684Z,45.89
2019-02-23T14:27:10.286Z,45.99
2019-02-23T14:30:28.304Z,46.01
2019-02-23T14:33:33.887Z,45.71
2019-02-23T14:36:19.655Z,46.61
2019-02-23T14:39:24.957Z,46.22
2019-02-23T14:42:09.584Z,46.96
2019-02-23T14:45:02.062Z,46.40
2019-02-23T14:47:56.837Z,47.62
2019-02-23T14:50:56.986Z,47.42
2019-02-23T14:53:52.006Z,47.69
2019-02-23T14:56:55.071Z,47.87
2019-02-23T14:59:40.670Z,47.97
2019-02-23T15:02:47.376Z,47.97
2019-02-23T15:05:43.377Z,47.56
2019-02-23T15:08:40.541Z,47.43
2019-02-23T15:12:06.677Z,47.61
2019-02-23T15:15:12.790Z,47.40
2019-02-23T15:18:20.997Z,48.00
2019-02-23T15:21:27.347Z,48.30
2019-02-23T15:24:37.895Z,48.60
2019-02-23T15:27:24.988Z,49.02
2019-02-23T15:30:30.084Z,48.73
2019-02-23T15:33:35.278Z,48.65
2019-02-23T15:36:18.917Z,49.17
2019-02-23T15:39:25.017Z,49.09
2019-02-23T15:42:42.118Z,48.54
2019-02-23T15:45:46.283Z,47.78
2019-02-23T15:48:34.889Z,48.04
2019-02-23T15:51:05.408Z,48.98
2019-02-23T15:53:35.130Z,48.98
2019-02-23T15:56:04.924Z,49.49
2019-02-23T15:58:35.631Z,49.88
2019-02-23T16:01:05.363Z,49.95
2019-02-23T16:03:35.129Z,50.23
2019-02-23T16:06:05.155Z,50.43
2019-02-23T16:08:34.855Z,50.80
2019-02-23T16:11:04.923Z,50.99
2019-02-23T16:13:34.802Z,51.26
2019-02-23T16:16:05.017Z,51.46
2019-02-23T16:18:35.005Z,51.48
2019-02-23T16:21:05.409Z,51.95
2019-02-23T16:23:35.748Z,52.19
2019-02-23T16:26:05.383Z,52.69
2019-02-23T16:28:35.316Z,52.83
2019-02-23T16:31:04.994Z,52.48
2019-02-23T16:33:34.688Z,52.72
2019-02-23T16:36:05.337Z,52.69
2019-02-23T16:38:35.079Z,53.08
2019-02-23T16:41:05.657Z,53.67
2019-02-23T16:43:35.397Z,53.58
2019-02-23T16:46:05.123Z,53.52
2019-02-23T16:48:34.886Z,53.86
2019-02-23T16:51:04.968Z,54.30
2019-02-23T16:53:34.877Z,54.35
2019-02-23T16:56:05.472Z,54.88
2019-02-23T16:58:35.118Z,55.07
2019-02-23T17:01:05.928Z,55.34
2019-02-23T17:03:35.886Z,55.66
2019-02-23T17:06:05.533Z,55.90
2019-02-23T17:08:35.589Z,56.08
2019-02-23T17:11:05.276Z,56.41
2019-02-23T17:13:35.007Z,56.63
2019-02-23T17:16:05.411Z,56.79
2019-02-23T17:18:35.084Z,57.09
2019-02-23T17:21:04.980Z,57.26
2019-02-23T17:23:34.651Z,57.42
2019-02-23T17:26:05.260Z,57.63
2019-02-23T17:28:34.939Z,57.68
2019-02-23T17:31:05.521Z,57.94
2019-02-23T17:33:35.196Z,57.97
2019-02-23T17:36:05.128Z,58.18
2019-02-23T17:41:17.022Z,58.62
2019-02-23T17:43:46.761Z,58.08
2019-02-23T17:46:16.435Z,58.14
2019-02-23T17:48:46.699Z,57.98
2019-02-23T17:51:16.361Z,58.15
2019-02-23T17:53:46.034Z,58.03
2019-02-23T17:56:15.957Z,58.21
2019-02-23T17:58:48.911Z,58.20
2019-02-23T18:01:18.766Z,58.41
2019-02-23T18:03:48.701Z,58.61
2019-02-23T18:06:18.389Z,58.52
2019-02-23T18:08:48.077Z,58.75
2019-02-23T18:11:17.834Z,58.72
2019-02-23T18:13:47.512Z,58.93
2019-02-23T18:16:17.194Z,59.02
2019-02-23T18:18:46.893Z,59.21
2019-02-23T18:21:16.573Z,59.16
2019-02-23T18:23:46.405Z,59.24
2019-02-23T18:26:21.055Z,59.38
2019-02-23T18:28:48.160Z,59.50
2019-02-23T18:31:18.376Z,59.67
2019-02-23T18:33:48.059Z,59.93
2019-02-23T18:36:17.854Z,59.93
2019-02-23T18:38:47.836Z,60.10
2019-02-23T18:41:17.705Z,60.01
2019-02-23T18:43:48.312Z,60.02
2019-02-23T18:46:18.007Z,60.33
2019-02-23T18:48:47.742Z,60.48
2019-02-23T18:51:17.426Z,60.75
2019-02-23T18:53:47.114Z,60.97
2019-02-23T18:56:16.808Z,60.91
2019-02-23T18:58:46.907Z,60.99
2019-02-23T19:01:16.577Z,60.97
2019-02-23T19:03:46.244Z,60.90
2019-02-23T19:06:16.277Z,61.16
2019-02-23T19:08:46.214Z,61.33
2019-02-23T19:11:15.882Z,61.33
2019-02-23T19:13:46.060Z,61.59
2019-02-23T19:16:15.739Z,61.59
2019-02-23T19:18:45.423Z,61.52
2019-02-23T19:21:15.113Z,61.63
2019-02-23T19:23:44.824Z,61.65
2019-02-23T19:26:14.755Z,61.69
2019-02-23T19:28:44.417Z,61.84
2019-02-23T19:31:14.137Z,61.66
2019-02-23T19:33:43.890Z,61.67
2019-02-23T19:36:13.643Z,61.60
2019-02-23T19:38:43.322Z,61.89
2019-02-23T19:41:13.329Z,61.82
2019-02-23T19:43:44.240Z,62.00
2019-02-23T19:46:13.983Z,62.15
2019-02-23T19:48:43.658Z,62.29
2019-02-23T19:51:13.365Z,62.36
2019-02-23T19:53:43.369Z,62.49
2019-02-23T19:56:13.074Z,62.39
2019-02-23T19:58:42.816Z,62.46
2019-02-23T20:01:12.505Z,62.46
2019-02-23T20:03:42.278Z,62.49
2019-02-23T20:06:12.378Z,62.56
2019-02-23T20:08:42.319Z,62.53
2019-02-23T20:11:12.246Z,62.57
2019-02-23T20:13:42.208Z,62.60
2019-02-23T20:16:11.999Z,62.74
2019-02-23T20:18:42.657Z,62.64
2019-02-23T20:21:12.321Z,62.76
2019-02-23T20:23:42.011Z,62.86
2019-02-23T20:26:11.695Z,62.98
2019-02-23T20:28:42.266Z,62.99
2019-02-23T20:31:11.946Z,62.90
2019-02-23T20:33:41.714Z,62.77
2019-02-23T20:36:11.408Z,62.86
2019-02-23T20:38:41.072Z,62.83
2019-02-23T20:41:10.764Z,62.77
2019-02-23T20:43:40.501Z,62.80
2019-02-23T20:46:10.176Z,62.76
2019-02-23T20:48:40.523Z,62.52
2019-02-23T20:51:10.431Z,62.41
2019-02-23T20:53:40.441Z,62.30
2019-02-23T20:56:10.118Z,62.25
2019-02-23T20:58:40.021Z,62.14
2019-02-23T21:01:10.087Z,61.88
2019-02-23T21:03:39.766Z,61.95
2019-02-23T21:06:09.457Z,61.85
2019-02-23T21:08:39.650Z,61.59
2019-02-23T21:11:09.875Z,61.74
2019-02-23T21:13:39.592Z,61.90
2019-02-23T21:16:09.263Z,62.15
2019-02-23T21:18:39.246Z,62.29
2019-02-23T21:21:08.909Z,62.37
2019-02-23T21:23:38.823Z,62.39
2019-02-23T21:26:08.505Z,62.59
2019-02-23T21:28:38.201Z,62.75
2019-02-23T21:31:07.886Z,62.84
2019-02-23T21:33:37.785Z,63.03
2019-02-23T21:36:07.533Z,63.09
2019-02-23T21:38:37.280Z,63.28
2019-02-23T21:41:06.957Z,63.36
2019-02-23T21:43:36.623Z,63.31
2019-02-23T21:46:06.305Z,63.44
2019-02-23T21:48:36.240Z,63.61
2019-02-23T21:51:05.944Z,63.74
2019-02-23T21:53:36.078Z,63.91
2019-02-23T21:56:05.758Z,63.98
2019-02-23T21:58:35.826Z,64.18
2019-02-23T22:01:05.492Z,64.30
2019-02-23T22:03:35.420Z,64.44
2019-02-23T22:06:05.710Z,64.56
2019-02-23T22:08:35.640Z,64.79
2019-02-23T22:11:05.385Z,65.01
2019-02-23T22:13:35.162Z,65.13
2019-02-23T22:16:04.835Z,65.29
2019-02-23T22:18:34.855Z,65.36
2019-02-23T22:21:04.928Z,65.47
2019-02-23T22:23:34.603Z,65.56
2019-02-23T22:26:04.380Z,65.76
2019-02-23T22:28:34.053Z,65.90
2019-02-23T22:31:04.780Z,66.14
2019-02-23T22:33:34.465Z,66.32
2019-02-23T22:36:04.971Z,66.46
2019-02-23T22:38:34.823Z,66.57
2019-02-23T22:41:05.129Z,66.74
2019-02-23T22:43:34.820Z,67.03
2019-02-23T22:46:05.405Z,67.18
2019-02-23T22:48:35.566Z,67.29
2019-02-23T22:51:05.309Z,67.40
2019-02-23T22:53:35.974Z,67.56
2019-02-23T22:56:05.653Z,67.82
2019-02-23T22:58:35.325Z,68.19
2019-02-23T23:01:07.179Z,68.53
2019-02-23T23:03:37.401Z,68.75
2019-02-23T23:06:07.169Z,68.82
2019-02-23T23:08:36.850Z,68.81
2019-02-23T23:11:06.604Z,68.80
2019-02-23T23:13:36.291Z,68.73
2019-02-23T23:16:05.965Z,68.72
2019-02-23T23:18:36.068Z,68.77
2019-02-23T23:21:05.746Z,68.69
2019-02-23T23:23:35.480Z,68.69
2019-02-23T23:26:05.420Z,68.66
2019-02-23T23:28:35.354Z,68.69
2019-02-23T23:31:05.041Z,68.80
2019-02-23T23:33:34.751Z,68.83
2019-02-23T23:36:04.948Z,68.92
2019-02-23T23:38:34.612Z,68.95
2019-02-23T23:41:05.221Z,69.00
2019-02-23T23:43:34.901Z,69.07
2019-02-23T23:46:05.116Z,69.16
2019-02-23T23:48:34.812Z,69.20
2019-02-23T23:51:05.036Z,69.20
2019-02-23T23:53:34.981Z,69.29
2019-02-23T23:56:05.720Z,69.39
2019-02-23T23:58:35.792Z,69.64
